createdAt,value
2022-11-05T00:00:49.161Z,97641.28
2022-11-05T00:03:36.572Z,97643.16
2022-11-05T00:06:25.125Z,97647.34
2022-11-05T00:09:11.018Z,97636.38
2022-11-05T00:11:56.901Z,97649.09
2022-11-05T00:14:42.861Z,97655.06
2022-11-05T00:17:12.055Z,97657.63
2022-11-05T00:19:42.119Z,97657.72
2022-11-05T00:22:28.070Z,97666.28
2022-11-05T00:25:14.210Z,97659.44
2022-11-05T00:27:43.070Z,97670.53
2022-11-05T00:30:12.600Z,97663.72
2022-11-05T00:32:41.295Z,97661.25
2022-11-05T00:35:11.982Z,97661.19
2022-11-05T00:37:43.234Z,97664.63
2022-11-05T00:40:16.164Z,97662.84
2022-11-05T00:43:03.262Z,97671.41
2022-11-05T00:45:33.714Z,97673.84
2022-11-05T00:48:19.588Z,97676.41
2022-11-05T00:50:51.337Z,97674.53
2022-11-05T00:53:20.363Z,97675.13
2022-11-05T00:55:49.053Z,97680.25
2022-11-05T00:58:20.551Z,97671.13
2022-11-05T01:00:51.992Z,97674.63
2022-11-05T01:03:22.336Z,97696.72
2022-11-05T01:05:54.722Z,97684.00
2022-11-05T01:08:25.236Z,97688.38
2022-11-05T01:10:56.206Z,97698.56
2022-11-05T01:13:27.158Z,97704.50
2022-11-05T01:15:56.741Z,97700.94
2022-11-05T01:18:25.967Z,97702.56
2022-11-05T01:20:56.300Z,97707.63
2022-11-05T01:23:25.916Z,97701.50
2022-11-05T01:25:54.489Z,97702.59
2022-11-05T01:28:23.089Z,97716.88
2022-11-05T01:30:57.367Z,97711.63
2022-11-05T01:33:27.622Z,97711.69
2022-11-05T01:35:58.677Z,97713.25
2022-11-05T01:38:27.418Z,97710.56
2022-11-05T01:40:56.222Z,97706.56
2022-11-05T01:43:26.862Z,97726.09
2022-11-05T01:45:59.388Z,97724.41
2022-11-05T01:48:34.292Z,97727.59
2022-11-05T01:51:08.713Z,97730.19
2022-11-05T01:53:42.479Z,97731.19
2022-11-05T01:56:14.384Z,97730.38
2022-11-05T01:58:50.359Z,97740.53
2022-11-05T02:01:19.812Z,97722.84
2022-11-05T02:03:51.922Z,97736.25
2022-11-05T02:06:23.044Z,97745.66
2022-11-05T02:08:58.854Z,97743.06
2022-11-05T02:11:28.609Z,97749.00
2022-11-05T02:13:57.599Z,97746.16
2022-11-05T02:16:37.230Z,97741.97
2022-11-05T02:19:25.078Z,97749.59
2022-11-05T02:22:25.015Z,97755.56
2022-11-05T02:25:19.436Z,97756.34
2022-11-05T02:28:18.767Z,97758.91
2022-11-05T02:30:56.630Z,97756.47
2022-11-05T02:33:40.264Z,97752.22
2022-11-05T02:36:21.791Z,97758.13
2022-11-05T02:39:00.365Z,97764.91
2022-11-05T02:41:37.464Z,97762.41
2022-11-05T02:44:17.397Z,97762.25
2022-11-05T02:46:56.726Z,97762.47
2022-11-05T02:49:42.803Z,97770.94
2022-11-05T02:52:17.853Z,97772.72
2022-11-05T02:54:53.307Z,97776.00
2022-11-05T02:57:24.686Z,97781.06
2022-11-05T03:00:02.637Z,97774.31
2022-11-05T03:02:34.220Z,97775.22
2022-11-05T03:05:04.323Z,97775.28
2022-11-05T03:07:43.377Z,97776.28
2022-11-05T03:10:26.916Z,97773.72
2022-11-05T03:13:07.773Z,97770.03
2022-11-05T03:15:49.577Z,97774.44
2022-11-05T03:18:28.032Z,97772.00
2022-11-05T03:21:04.628Z,97766.03
2022-11-05T03:23:39.450Z,97769.31
2022-11-05T03:26:13.764Z,97780.53
2022-11-05T03:28:47.312Z,97773.72
2022-11-05T03:31:17.995Z,97772.78
2022-11-05T03:33:49.823Z,97776.13
2022-11-05T03:36:23.312Z,97776.19
2022-11-05T03:38:56.727Z,97781.25
2022-11-05T03:41:26.810Z,97789.91
2022-11-05T03:44:00.086Z,97787.63
2022-11-05T03:46:32.311Z,97789.09
2022-11-05T03:49:06.167Z,97795.81
2022-11-05T03:51:44.328Z,97793.97
2022-11-05T03:54:13.618Z,97798.19
2022-11-05T03:56:50.666Z,97793.19
2022-11-05T03:59:20.083Z,97797.44
2022-11-05T04:01:51.215Z,97796.75
2022-11-05T04:04:22.129Z,97795.88
2022-11-05T04:07:07.948Z,97789.91
2022-11-05T04:09:59.628Z,97789.09
2022-11-05T04:12:45.791Z,97801.94
2022-11-05T04:15:14.439Z,97795.88
2022-11-05T04:17:42.810Z,97801.94
2022-11-05T04:20:29.824Z,97798.44
2022-11-05T04:23:20.911Z,97806.19
2022-11-05T04:25:49.313Z,97800.22
2022-11-05T04:28:18.273Z,97808.66
2022-11-05T04:30:45.612Z,97802.00
2022-11-05T04:33:16.808Z,97808.09
2022-11-05T04:35:49.285Z,97806.31
2022-11-05T04:38:20.003Z,97820.69
2022-11-05T04:40:49.403Z,97817.28
2022-11-05T04:43:20.247Z,97823.97
2022-11-05T04:45:49.401Z,97825.66
2022-11-05T04:48:17.778Z,97825.69
2022-11-05T04:50:47.680Z,97817.16
2022-11-05T04:53:16.494Z,97834.88
2022-11-05T04:55:44.766Z,97844.28
2022-11-05T04:58:13.130Z,97845.97
2022-11-05T05:00:41.433Z,97854.44
2022-11-05T05:03:10.306Z,97864.69
2022-11-05T05:05:39.176Z,97862.91
2022-11-05T05:08:09.018Z,97860.44
2022-11-05T05:10:37.427Z,97871.47
2022-11-05T05:13:05.787Z,97877.47
2022-11-05T05:15:34.275Z,97885.00
2022-11-05T05:18:02.855Z,97884.22
2022-11-05T05:21:00.167Z,97891.66
2022-11-05T05:23:30.115Z,97882.59
2022-11-05T05:26:01.246Z,97892.69
2022-11-05T05:28:29.831Z,97893.69
2022-11-05T05:31:00.402Z,97896.25
2022-11-05T05:33:29.901Z,97900.44
2022-11-05T05:35:59.974Z,97903.81
2022-11-05T05:38:30.137Z,97907.13
2022-11-05T05:41:00.998Z,97914.91
2022-11-05T05:43:31.638Z,97913.91
2022-11-05T05:46:04.200Z,97900.50
2022-11-05T05:48:32.883Z,97916.56
2022-11-05T05:51:03.031Z,97919.03
2022-11-05T05:53:34.137Z,97913.97
2022-11-05T05:56:03.291Z,97932.75
2022-11-05T05:58:35.658Z,97922.56
2022-11-05T06:01:05.260Z,97929.28
2022-11-05T06:03:33.905Z,97926.72
2022-11-05T06:06:03.457Z,97934.41
2022-11-05T06:08:33.313Z,97933.47
2022-11-05T06:11:02.492Z,97935.19
2022-11-05T06:13:32.095Z,97941.75
2022-11-05T06:16:03.275Z,97941.88
2022-11-05T06:18:32.022Z,97947.84
2022-11-05T06:21:03.522Z,97947.94
2022-11-05T06:23:34.172Z,97957.94
2022-11-05T06:26:04.642Z,97958.03
2022-11-05T06:28:35.245Z,97960.50
2022-11-05T06:31:03.957Z,97967.50
2022-11-05T06:33:32.522Z,97969.06
2022-11-05T06:36:02.029Z,97971.66
2022-11-05T06:38:32.970Z,97973.44
2022-11-05T06:41:09.885Z,97974.41
2022-11-05T06:43:39.261Z,97969.84
2022-11-05T06:46:07.946Z,97966.66
2022-11-05T06:48:36.870Z,97971.78
2022-11-05T06:51:06.241Z,97974.25
2022-11-05T06:53:34.971Z,97981.19
2022-11-05T06:56:06.616Z,97987.03
2022-11-05T06:58:35.922Z,97989.56
2022-11-05T07:01:06.114Z,97992.22
2022-11-05T07:03:34.649Z,97984.75
2022-11-05T07:06:04.838Z,98017.16
2022-11-05T07:08:33.971Z,98006.84
2022-11-05T07:11:02.845Z,98024.84
2022-11-05T07:13:34.827Z,98019.78
2022-11-05T07:16:03.305Z,98029.28
2022-11-05T07:18:31.686Z,98024.16
2022-11-05T07:21:01.096Z,98032.78
2022-11-05T07:23:29.578Z,98026.81
2022-11-05T07:25:57.937Z,98043.84
2022-11-05T07:28:26.738Z,98043.00
2022-11-05T07:30:56.877Z,98047.31
2022-11-05T07:33:25.834Z,98037.16
2022-11-05T07:35:54.730Z,98048.13
2022-11-05T07:38:23.218Z,98035.38
2022-11-05T07:40:52.125Z,98041.34
2022-11-05T07:43:20.520Z,98053.22
2022-11-05T07:45:49.142Z,98049.66
2022-11-05T07:48:20.081Z,98048.75
2022-11-05T07:50:52.414Z,98062.16
2022-11-05T07:53:21.500Z,98060.44
2022-11-05T07:55:49.813Z,98077.88
2022-11-05T07:58:18.718Z,98072.78
2022-11-05T08:00:47.261Z,98070.00
2022-11-05T08:03:18.361Z,98072.22
2022-11-05T08:05:50.150Z,98071.31
2022-11-05T08:08:20.959Z,98071.38
2022-11-05T08:10:50.129Z,98058.56
2022-11-05T08:13:19.954Z,98071.25
2022-11-05T08:15:48.554Z,98067.81
2022-11-05T08:18:18.785Z,98066.13
2022-11-05T08:20:49.912Z,98074.56
2022-11-05T08:23:18.520Z,98077.00
2022-11-05T08:25:46.984Z,98081.25
2022-11-05T08:28:15.706Z,98084.38
2022-11-05T08:30:44.589Z,98077.59
2022-11-05T08:33:16.254Z,98081.84
2022-11-05T08:35:46.149Z,98079.34
2022-11-05T08:38:17.643Z,98085.06
2022-11-05T08:40:48.736Z,98088.41
2022-11-05T08:43:17.747Z,98085.94
2022-11-05T08:45:48.125Z,98078.38
2022-11-05T08:48:19.345Z,98090.44
2022-11-05T08:50:49.575Z,98097.84
2022-11-05T08:53:19.695Z,98091.91
2022-11-05T08:55:50.179Z,98095.25
2022-11-05T08:58:20.594Z,98096.94
2022-11-05T09:00:50.925Z,98094.78
2022-11-05T09:03:20.536Z,98109.06
2022-11-05T09:05:49.046Z,98114.19
2022-11-05T09:08:20.610Z,98118.53
2022-11-05T09:10:50.691Z,98117.81
2022-11-05T09:13:20.465Z,98117.06
2022-11-05T09:15:49.817Z,98116.09
2022-11-05T09:18:19.519Z,98115.16
2022-11-05T09:20:48.910Z,98125.16
2022-11-05T09:23:19.328Z,98127.63
2022-11-05T09:25:48.642Z,98123.50
2022-11-05T09:28:18.940Z,98122.28
2022-11-05T09:30:48.990Z,98119.44
2022-11-05T09:33:18.793Z,98124.66
2022-11-05T09:35:48.250Z,98125.41
2022-11-05T09:38:17.748Z,98130.38
2022-11-05T09:40:56.298Z,98128.94
2022-11-05T09:43:31.664Z,98134.44
2022-11-05T09:46:04.838Z,98142.16
2022-11-05T09:48:36.452Z,98140.72
2022-11-05T09:51:07.478Z,98144.91
2022-11-05T09:53:41.221Z,98150.00
2022-11-05T09:56:23.162Z,98155.06
2022-11-05T09:59:00.091Z,98153.25
2022-11-05T10:01:32.705Z,98148.19
2022-11-05T10:04:04.358Z,98152.25
2022-11-05T10:06:33.444Z,98149.78
2022-11-05T10:09:07.377Z,98152.69
2022-11-05T10:11:45.901Z,98146.22
2022-11-05T10:14:21.641Z,98150.13
2022-11-05T10:16:55.876Z,98149.81
2022-11-05T10:19:27.432Z,98154.59
2022-11-05T10:22:07.180Z,98154.66
2022-11-05T10:24:36.461Z,98156.13
2022-11-05T10:27:07.739Z,98156.91
2022-11-05T10:29:37.408Z,98161.66
2022-11-05T10:32:08.071Z,98163.00
2022-11-05T10:34:40.142Z,98162.88
2022-11-05T10:37:09.238Z,98156.97
2022-11-05T10:39:38.152Z,98164.91
2022-11-05T10:42:29.356Z,98162.22
2022-11-05T10:45:07.123Z,98163.88
2022-11-05T10:48:03.057Z,98156.19
2022-11-05T10:50:32.673Z,98172.63
2022-11-05T10:53:04.114Z,98172.53
2022-11-05T10:55:35.954Z,98168.00
2022-11-05T10:58:30.588Z,98165.38
2022-11-05T11:01:05.795Z,98173.47
2022-11-05T11:03:39.005Z,98167.88
2022-11-05T11:06:18.947Z,98172.28
2022-11-05T11:08:48.937Z,98161.84
2022-11-05T11:11:29.027Z,98179.81
2022-11-05T11:14:05.246Z,98177.44
2022-11-05T11:16:41.723Z,98175.56
2022-11-05T11:19:27.542Z,98177.94
2022-11-05T11:22:19.254Z,98177.59
2022-11-05T11:24:50.599Z,98164.63
2022-11-05T11:27:24.525Z,98160.09
2022-11-05T11:30:08.247Z,98176.81
2022-11-05T11:32:40.994Z,98172.53
2022-11-05T11:35:27.176Z,98174.41
2022-11-05T11:37:58.741Z,98174.06
2022-11-05T11:40:32.954Z,98178.38
2022-11-05T11:43:07.267Z,98170.59
2022-11-05T11:45:45.847Z,98179.09
2022-11-05T11:48:19.237Z,98181.03
2022-11-05T11:50:49.760Z,98182.72
2022-11-05T11:53:28.224Z,98184.53
2022-11-05T11:56:03.626Z,98182.69
2022-11-05T11:58:44.296Z,98192.66
2022-11-05T12:01:48.910Z,98189.06
2022-11-05T12:04:35.484Z,98192.47
2022-11-05T12:07:18.414Z,98188.97
2022-11-05T12:10:04.599Z,98176.94
2022-11-05T12:12:43.632Z,98176.75
2022-11-05T12:15:28.949Z,98178.22
2022-11-05T12:18:02.941Z,98182.47
2022-11-05T12:20:52.713Z,98185.31
2022-11-05T12:23:53.414Z,98181.22
2022-11-05T12:26:32.610Z,98180.34
2022-11-05T12:29:22.968Z,98182.13
2022-11-05T12:32:03.075Z,98193.75
2022-11-05T12:34:47.529Z,98194.50
2022-11-05T12:37:24.092Z,98192.66
2022-11-05T12:40:05.666Z,98184.19
2022-11-05T12:42:46.797Z,98190.09
2022-11-05T12:45:27.405Z,98185.19
2022-11-05T12:48:10.377Z,98179.03
2022-11-05T12:50:44.232Z,98189.38
2022-11-05T12:53:41.888Z,98192.72
2022-11-05T12:56:17.031Z,98202.00
2022-11-05T12:58:49.429Z,98197.69
2022-11-05T13:01:22.618Z,98200.72
2022-11-05T13:03:57.432Z,98197.44
2022-11-05T13:06:33.241Z,98207.66
2022-11-05T13:09:07.499Z,98211.59
2022-11-05T13:11:42.292Z,98211.47
2022-11-05T13:14:16.137Z,98205.56
2022-11-05T13:16:49.535Z,98208.69
2022-11-05T13:19:23.304Z,98205.03
2022-11-05T13:21:56.225Z,98199.00
2022-11-05T13:24:30.906Z,98204.06
2022-11-05T13:27:05.164Z,98211.66
2022-11-05T13:29:40.644Z,98206.69
2022-11-05T13:32:19.126Z,98210.22
2022-11-05T13:34:49.422Z,98214.47
2022-11-05T13:37:41.997Z,98217.94
2022-11-05T13:40:17.400Z,98212.16
2022-11-05T13:43:04.885Z,98205.66
2022-11-05T13:46:06.935Z,98218.28
2022-11-05T13:49:09.905Z,98211.47
2022-11-05T13:51:55.172Z,98210.56
2022-11-05T13:55:02.004Z,98220.75
2022-11-05T13:57:54.218Z,98221.53
2022-11-05T14:00:24.975Z,98211.72
2022-11-05T14:02:57.964Z,98223.41
2022-11-05T14:05:32.120Z,98221.66
2022-11-05T14:08:02.440Z,98219.03
2022-11-05T14:10:37.727Z,98224.63
2022-11-05T14:13:21.556Z,98223.25
2022-11-05T14:16:03.117Z,98220.69
2022-11-05T14:18:45.205Z,98227.53
2022-11-05T14:21:47.880Z,98228.22
2022-11-05T14:24:44.786Z,98228.88
2022-11-05T14:27:44.157Z,98228.19
2022-11-05T14:30:47.073Z,98234.13
2022-11-05T14:33:20.287Z,98229.84
2022-11-05T14:35:50.181Z,98233.34
2022-11-05T14:38:25.399Z,98228.25
2022-11-05T14:41:03.649Z,98232.63
2022-11-05T14:43:36.817Z,98231.72
2022-11-05T14:46:08.612Z,98237.81
2022-11-05T14:48:41.679Z,98230.97
2022-11-05T14:51:28.413Z,98233.78
2022-11-05T14:54:04.810Z,98243.22
2022-11-05T14:56:45.353Z,98247.31
2022-11-05T14:59:37.057Z,98243.09
2022-11-05T15:02:13.868Z,98247.44
2022-11-05T15:04:45.824Z,98246.56
2022-11-05T15:07:37.750Z,98253.38
2022-11-05T15:10:14.286Z,98260.22
2022-11-05T15:12:47.448Z,98256.06
2022-11-05T15:15:42.557Z,98266.22
2022-11-05T15:18:18.883Z,98260.50
2022-11-05T15:20:51.361Z,98260.34
2022-11-05T15:23:23.787Z,98258.72
2022-11-05T15:25:56.980Z,98270.78
2022-11-05T15:28:36.443Z,98274.19
2022-11-05T15:31:07.956Z,98265.75
2022-11-05T15:33:38.366Z,98282.78
2022-11-05T15:36:13.729Z,98281.19
2022-11-05T15:39:02.021Z,98287.25
2022-11-05T15:41:34.818Z,98286.38
2022-11-05T15:44:03.810Z,98285.56
2022-11-05T15:46:32.642Z,98292.59
2022-11-05T15:49:07.001Z,98292.56
2022-11-05T15:51:36.377Z,98287.53
2022-11-05T15:54:29.003Z,98292.81
2022-11-05T15:56:58.768Z,98296.22
2022-11-05T15:59:30.411Z,98297.16
2022-11-05T16:02:06.891Z,98296.28
2022-11-05T16:04:38.131Z,98295.53
2022-11-05T16:07:11.779Z,98284.38
2022-11-05T16:09:44.167Z,98296.28
2022-11-05T16:12:33.243Z,98298.03
2022-11-05T16:15:05.974Z,98304.84
2022-11-05T16:17:48.148Z,98309.16
2022-11-05T16:20:27.846Z,98314.28
2022-11-05T16:22:59.092Z,98313.50
2022-11-05T16:25:42.957Z,98310.88
2022-11-05T16:28:24.119Z,98316.84
2022-11-05T16:30:58.014Z,98321.13
2022-11-05T16:33:27.639Z,98322.91
2022-11-05T16:35:58.976Z,98321.25
2022-11-05T16:38:28.329Z,98327.22
2022-11-05T16:40:57.133Z,98333.19
2022-11-05T16:43:26.916Z,98335.75
2022-11-05T16:45:58.142Z,98337.47
2022-11-05T16:48:27.468Z,98341.63
2022-11-05T16:50:58.509Z,98348.53
2022-11-05T16:53:27.195Z,98347.66
2022-11-05T16:55:55.738Z,98349.31
2022-11-05T16:58:27.741Z,98348.53
2022-11-05T17:01:02.370Z,98366.47
2022-11-05T17:03:31.021Z,98351.13
2022-11-05T17:06:02.168Z,98353.66
2022-11-05T17:08:31.163Z,98359.66
2022-11-05T17:10:59.907Z,98370.72
2022-11-05T17:13:28.448Z,98369.88
2022-11-05T17:15:56.928Z,98377.63
2022-11-05T17:18:26.223Z,98376.81
2022-11-05T17:20:57.616Z,98378.53
2022-11-05T17:23:30.352Z,98382.81
2022-11-05T17:26:03.772Z,98377.75
2022-11-05T17:28:33.630Z,98382.00
2022-11-05T17:31:03.180Z,98382.91
2022-11-05T17:33:32.583Z,98394.00
2022-11-05T17:36:02.053Z,98395.69
2022-11-05T17:38:32.419Z,98378.66
2022-11-05T17:41:01.865Z,98385.47
2022-11-05T17:43:30.144Z,98376.09
2022-11-05T17:46:04.086Z,98376.13
2022-11-05T17:48:33.324Z,98383.03
2022-11-05T17:51:01.917Z,98389.00
2022-11-05T17:53:32.047Z,98383.91
2022-11-05T17:56:00.690Z,98384.84
2022-11-05T17:58:29.210Z,98380.59
2022-11-05T18:00:58.628Z,98378.91
2022-11-05T18:03:27.366Z,98387.59
2022-11-05T18:05:55.768Z,98394.31
2022-11-05T18:08:24.069Z,98395.09
2022-11-05T18:10:55.439Z,98403.81
2022-11-05T18:13:24.177Z,98397.84
2022-11-05T18:15:54.137Z,98399.53
2022-11-05T18:18:23.282Z,98404.72
2022-11-05T18:20:51.997Z,98395.34
2022-11-05T18:23:21.484Z,98395.31
2022-11-05T18:25:49.946Z,98395.31
2022-11-05T18:28:20.050Z,98395.50
2022-11-05T18:30:48.704Z,98399.72
2022-11-05T18:33:19.020Z,98401.50
2022-11-05T18:35:47.934Z,98404.91
2022-11-05T18:38:16.643Z,98396.47
2022-11-05T18:40:45.985Z,98415.16
2022-11-05T18:43:14.992Z,98406.56
2022-11-05T18:45:44.895Z,98402.31
2022-11-05T18:48:13.799Z,98405.72
2022-11-05T18:50:42.427Z,98410.94
2022-11-05T18:53:10.956Z,98411.81
2022-11-05T18:55:40.615Z,98415.13
2022-11-05T18:58:09.082Z,98417.00
2022-11-05T19:00:40.617Z,98419.66
2022-11-05T19:03:11.022Z,98416.31
2022-11-05T19:05:39.348Z,98422.34
2022-11-05T19:08:07.850Z,98425.69
2022-11-05T19:10:37.000Z,98415.63
2022-11-05T19:13:05.410Z,98402.09
2022-11-05T19:15:35.899Z,98419.97
2022-11-05T19:18:04.329Z,98414.09
2022-11-05T19:20:37.814Z,98416.78
2022-11-05T19:23:06.994Z,98416.97
2022-11-05T19:25:38.150Z,98424.66
2022-11-05T19:28:06.610Z,98424.69
2022-11-05T19:30:35.069Z,98429.91
2022-11-05T19:33:03.422Z,98429.91
2022-11-05T19:35:38.339Z,98435.88
2022-11-05T19:38:09.621Z,98423.97
2022-11-05T19:40:38.872Z,98429.91
2022-11-05T19:43:08.754Z,98432.41
2022-11-05T19:45:45.061Z,98427.38
2022-11-05T19:48:19.081Z,98423.22
2022-11-05T19:50:50.434Z,98418.97
2022-11-05T19:53:19.075Z,98436.06
2022-11-05T19:55:47.701Z,98437.00
2022-11-05T19:58:16.324Z,98442.19
2022-11-05T20:00:45.377Z,98437.16
2022-11-05T20:03:13.736Z,98437.22
2022-11-05T20:05:42.339Z,98433.88
2022-11-05T20:08:13.351Z,98450.94
2022-11-05T20:10:42.293Z,98450.94
2022-11-05T20:13:13.225Z,98452.69
2022-11-05T20:15:46.810Z,98453.59
2022-11-05T20:18:17.456Z,98462.09
2022-11-05T20:20:46.414Z,98462.94
2022-11-05T20:23:16.580Z,98462.94
2022-11-05T20:25:45.146Z,98471.44
2022-11-05T20:28:13.844Z,98468.00
2022-11-05T20:30:42.589Z,98473.03
2022-11-05T20:33:11.206Z,98458.56
2022-11-05T20:35:40.969Z,98458.53
2022-11-05T20:38:09.848Z,98468.69
2022-11-05T20:40:42.378Z,98469.50
2022-11-05T20:43:10.932Z,98478.03
2022-11-05T20:45:40.331Z,98463.56
2022-11-05T20:48:09.427Z,98485.69
2022-11-05T20:50:41.842Z,98481.44
2022-11-05T20:53:10.616Z,98488.19
2022-11-05T20:55:46.036Z,98480.53
2022-11-05T20:58:16.006Z,98478.81
2022-11-05T21:00:51.417Z,98475.44
2022-11-05T21:03:21.565Z,98477.16
2022-11-05T21:05:54.720Z,98478.81
2022-11-05T21:08:24.165Z,98488.22
2022-11-05T21:10:54.147Z,98488.25
2022-11-05T21:13:23.579Z,98485.72
2022-11-05T21:15:54.790Z,98486.53
2022-11-05T21:18:24.853Z,98490.75
2022-11-05T21:20:54.551Z,98493.34
2022-11-05T21:23:23.036Z,98495.88
2022-11-05T21:25:51.712Z,98499.22
2022-11-05T21:28:21.518Z,98495.06
2022-11-05T21:30:49.908Z,98500.19
2022-11-05T21:33:19.707Z,98493.25
2022-11-05T21:35:49.807Z,98497.53
2022-11-05T21:38:19.469Z,98490.66
2022-11-05T21:40:48.796Z,98496.63
2022-11-05T21:43:17.466Z,98485.59
2022-11-05T21:45:47.723Z,98499.25
2022-11-05T21:48:16.529Z,98492.38
2022-11-05T21:51:02.303Z,98481.44
2022-11-05T21:53:48.763Z,98490.81
2022-11-05T21:56:37.321Z,98496.88
2022-11-05T21:59:23.346Z,98485.00
2022-11-05T22:02:01.713Z,98481.59
2022-11-05T22:04:31.233Z,98485.91
2022-11-05T22:06:59.672Z,98475.72
2022-11-05T22:09:28.794Z,98477.44
2022-11-05T22:11:57.774Z,98479.22
2022-11-05T22:14:26.575Z,98474.09
2022-11-05T22:16:57.445Z,98476.72
2022-11-05T22:19:26.539Z,98476.75
2022-11-05T22:21:54.789Z,98480.19
2022-11-05T22:24:23.728Z,98481.91
2022-11-05T22:26:52.605Z,98477.66
2022-11-05T22:29:21.612Z,98489.56
2022-11-05T22:31:50.183Z,98492.16
2022-11-05T22:34:20.727Z,98496.41
2022-11-05T22:36:49.206Z,98494.72
2022-11-05T22:39:17.608Z,98491.31
2022-11-05T22:41:46.434Z,98499.88
2022-11-05T22:44:16.708Z,98481.97
2022-11-05T22:46:45.379Z,98498.97
2022-11-05T22:49:14.317Z,98497.31
2022-11-05T22:51:44.600Z,98496.44
2022-11-05T22:54:13.214Z,98485.38
2022-11-05T22:56:43.666Z,98483.66
2022-11-05T22:59:14.600Z,98488.78
2022-11-05T23:01:44.112Z,98481.97
2022-11-05T23:04:13.735Z,98476.03
2022-11-05T23:07:01.325Z,98476.03
2022-11-05T23:09:49.460Z,98475.22
2022-11-05T23:12:23.985Z,98476.06
2022-11-05T23:14:52.562Z,98474.34
2022-11-05T23:17:38.509Z,98477.78
2022-11-05T23:20:26.151Z,98472.66
2022-11-05T23:23:13.103Z,98474.38
2022-11-05T23:25:41.852Z,98481.16
2022-11-05T23:28:12.236Z,98473.50
2022-11-05T23:31:05.675Z,98470.97
2022-11-05T23:33:34.744Z,98469.28
2022-11-05T23:36:21.038Z,98458.22
2022-11-05T23:38:50.980Z,98468.44
2022-11-05T23:41:36.636Z,98447.16
2022-11-05T23:44:21.600Z,98459.09
2022-11-05T23:47:07.731Z,98456.53
2022-11-05T23:49:37.065Z,98454.81
2022-11-05T23:52:06.104Z,98459.06
2022-11-05T23:54:36.004Z,98450.56
2022-11-05T23:57:05.127Z,98453.13
2022-11-05T23:59:36.159Z,98448.88
